createdAt,value
2023-05-06T00:12:31.928Z,12.30
2023-05-06T00:27:33.813Z,12.06
2023-05-06T00:42:35.923Z,11.93
2023-05-06T00:57:37.969Z,11.95
2023-05-06T01:13:01.338Z,11.82
2023-05-06T01:28:03.366Z,11.62
2023-05-06T01:43:06.628Z,11.47
2023-05-06T01:58:08.366Z,11.31
2023-05-06T02:13:10.899Z,11.40
2023-05-06T02:28:12.742Z,11.42
2023-05-06T02:43:14.552Z,11.16
2023-05-06T02:58:16.506Z,11.15
2023-05-06T03:13:18.319Z,11.20
2023-05-06T03:28:20.141Z,11.12
2023-05-06T03:43:21.882Z,11.23
2023-05-06T03:58:23.671Z,11.15
2023-05-06T04:13:25.535Z,11.55
2023-05-06T04:28:27.356Z,14.02
2023-05-06T04:43:29.108Z,13.98
2023-05-06T04:58:30.931Z,14.06
2023-05-06T05:28:49.058Z,15.51
2023-05-06T05:43:50.956Z,15.71
2023-05-06T05:58:53.702Z,14.32
2023-05-06T06:13:55.807Z,13.69
2023-05-06T06:29:00.718Z,13.22
2023-05-06T06:44:02.555Z,13.08
2023-05-06T06:59:04.405Z,13.20
2023-05-06T07:14:07.009Z,13.53
2023-05-06T07:29:08.780Z,14.71
2023-05-06T07:44:10.922Z,15.43
2023-05-06T07:59:12.681Z,16.30
2023-05-06T08:14:14.521Z,17.54
2023-05-06T08:29:16.346Z,17.18
2023-05-06T08:44:19.813Z,17.68
2023-05-06T08:59:27.837Z,17.81
2023-05-06T09:14:29.625Z,18.56
2023-05-06T09:29:31.520Z,18.42
2023-05-06T09:44:33.406Z,19.02
2023-05-06T09:59:36.462Z,19.58
2023-05-06T10:14:38.721Z,18.28
2023-05-06T10:29:42.771Z,17.90
2023-05-06T10:44:58.214Z,17.52
2023-05-06T11:00:00.158Z,17.86
2023-05-06T11:15:39.952Z,18.24
2023-05-06T11:30:55.090Z,18.33
2023-05-06T11:45:59.276Z,18.25
2023-05-06T12:01:03.886Z,18.71
2023-05-06T12:16:06.991Z,18.77
2023-05-06T12:31:28.984Z,19.53
2023-05-06T12:46:30.878Z,19.19
2023-05-06T13:01:32.793Z,18.41
2023-05-06T13:16:35.422Z,18.81
2023-05-06T13:31:37.287Z,18.32
2023-05-06T13:46:39.145Z,17.83
2023-05-06T14:01:41.647Z,18.02
2023-05-06T14:16:43.497Z,18.51
2023-05-06T14:31:45.290Z,19.36
2023-05-06T15:35:13.711Z,17.95
2023-05-06T17:59:11.428Z,15.77
2023-05-06T18:14:13.439Z,15.53
2023-05-06T18:29:15.323Z,15.52
2023-05-06T18:44:17.144Z,15.36
2023-05-06T18:59:19.783Z,15.11
2023-05-06T19:14:23.638Z,15.27
2023-05-06T19:29:27.247Z,14.85
2023-05-06T19:44:29.113Z,14.96
2023-05-06T19:59:30.863Z,14.62
2023-05-06T20:15:20.783Z,14.58
2023-05-06T20:30:57.667Z,14.94
2023-05-06T20:46:25.684Z,14.90
2023-05-06T22:07:58.105Z,15.02
2023-05-06T22:39:45.586Z,14.55
2023-05-06T23:43:00.988Z,14.27
